This is the latest recevied weather packets stored in our database for station/object K3RTA-2. If no packets are shown the sender has not sent any weather packets the latest 10 day(s).
| Time | Temp. | Humidity | Pressure | Rain* | Wind** | Luminosity | Snow |
|---|---|---|---|---|---|---|---|
| 1777795204 | 6.67° C | 75% | 1012.3 hPa | 0 mm | - | - | - |
| 1777794604 | 6.67° C | 75% | 1012.2 hPa | 0 mm | - | - | - |
| 1777790405 | 8.33° C | 70% | 1011.5 hPa | 0 mm | - | - | - |
| 1777788905 | 8.89° C | 68% | 1011.5 hPa | 0 mm | - | - | - |
| 1777788605 | 8.89° C | 67% | 1011.5 hPa | 0 mm | - | - | - |
| 1777788305 | 9.44° C | 66% | 1011.6 hPa | 0 mm | - | - | - |
| 1777788005 | 9.44° C | 65% | 1011.6 hPa | 0 mm | - | - | - |
| 1777786505 | 10° C | 62% | 1011.6 hPa | 0 mm | - | - | - |
| 1777785904 | 10.56° C | 61% | 1011.7 hPa | 0 mm | - | - | - |
| 1777784105 | 11.11° C | 59% | 1011.6 hPa | 0 mm | - | - | - |
| 1777782904 | 11.11° C | 58% | 1011.7 hPa | 0 mm | - | - | - |
| 1777781404 | 11.11° C | 59% | 1011.9 hPa | 0 mm | - | - | - |
| 1777779605 | 11.11° C | 59% | 1011.9 hPa | 0 mm | - | - | - |
| 1777777805 | 11.11° C | 60% | 1012 hPa | 0 mm | - | - | - |
| 1777773005 | 10.56° C | 66% | 1012 hPa | 0 mm | - | - | - |
| 1777769404 | 11.67° C | 64% | 1011.4 hPa | 0 mm | - | - | - |
| 1777767305 | 11.67° C | 66% | 1011.2 hPa | 0 mm | - | - | - |
| 1777767004 | 12.22° C | 66% | 1011.3 hPa | 0 mm | - | - | - |
| 1777766104 | 12.78° C | 62% | 1011.2 hPa | 0 mm | - | - | - |
| 1777764904 | 13.33° C | 59% | 1010.9 hPa | 0 mm | - | - | - |
| 1777763704 | 13.33° C | 57% | 1011 hPa | 0 mm | - | - | - |
| 1777762504 | 13.89° C | 54% | 1011.1 hPa | 0 mm | - | - | - |
| 1777762205 | 13.89° C | 54% | 1011.2 hPa | 0 mm | - | - | - |
| 1777761605 | 13.89° C | 53% | 1011 hPa | 0 mm | - | - | - |
| 1777761304 | 13.89° C | 53% | 1011.3 hPa | 0 mm | - | - | - |
* Rain latest hour (hover to see other rain measurements)
** Current wind speed in m/s (hover to see current wind gust speed)